createdAt,value
2024-01-18T00:03:56.509Z,5.64
2024-01-18T00:14:00.124Z,5.60
2024-01-18T00:24:03.270Z,5.80
2024-01-18T00:34:06.681Z,6.54
2024-01-18T00:44:12.800Z,7.11
2024-01-18T00:54:15.982Z,7.27
2024-01-18T01:04:19.142Z,7.16
2024-01-18T01:14:22.334Z,7.04
2024-01-18T01:24:25.701Z,6.93
2024-01-18T01:34:28.914Z,6.66
2024-01-18T01:44:32.153Z,6.70
2024-01-18T01:54:36.063Z,7.23
2024-01-18T02:04:39.382Z,7.57
2024-01-18T02:14:43.195Z,7.67
2024-01-18T02:24:55.935Z,7.68
2024-01-18T02:34:59.634Z,7.53
2024-01-18T02:45:05.961Z,7.30
2024-01-18T02:55:09.458Z,7.16
2024-01-18T03:05:13.855Z,7.10
2024-01-18T03:15:17.315Z,7.16
2024-01-18T03:25:20.407Z,7.32
2024-01-18T03:35:25.374Z,7.32
2024-01-18T03:45:28.825Z,7.36
2024-01-18T03:55:31.939Z,7.28
2024-01-18T04:05:35.203Z,6.99
2024-01-18T04:15:38.572Z,6.83
2024-01-18T04:25:42.447Z,6.69
2024-01-18T04:35:45.850Z,6.51
2024-01-18T04:45:48.970Z,6.28
2024-01-18T04:55:52.380Z,6.09
2024-01-18T05:05:58.050Z,6.00
2024-01-18T05:16:03.204Z,5.91
2024-01-18T05:26:06.870Z,5.77
2024-01-18T05:36:09.878Z,5.62
2024-01-18T05:46:13.181Z,5.47
2024-01-18T05:56:16.334Z,5.43
2024-01-18T06:06:19.409Z,5.46
2024-01-18T06:16:22.882Z,5.46
2024-01-18T06:26:26.040Z,5.42
2024-01-18T06:36:29.260Z,5.32
2024-01-18T06:46:32.849Z,5.28
2024-01-18T06:56:36.065Z,5.34
2024-01-18T07:06:40.002Z,5.41
2024-01-18T07:16:43.259Z,5.46
2024-01-18T07:26:46.480Z,5.55
2024-01-18T07:36:49.497Z,5.72
2024-01-18T07:46:52.546Z,5.78
2024-01-18T07:56:56.432Z,5.73
2024-01-18T08:07:00.589Z,5.76
2024-01-18T08:17:04.096Z,5.85
2024-01-18T08:27:07.142Z,5.85
2024-01-18T08:37:10.454Z,5.85
2024-01-18T08:47:14.457Z,5.83
2024-01-18T08:57:19.729Z,5.88
2024-01-18T09:07:23.040Z,5.87
2024-01-18T09:17:26.226Z,5.83
2024-01-18T09:27:29.474Z,5.87
2024-01-18T09:37:33.198Z,5.97
2024-01-18T09:47:36.642Z,6.05
2024-01-18T09:57:44.856Z,6.23
2024-01-18T10:07:48.375Z,6.46
2024-01-18T10:17:54.245Z,6.69
2024-01-18T10:27:59.456Z,6.71
2024-01-18T10:38:02.828Z,6.54
2024-01-18T10:48:06.625Z,6.62
2024-01-18T10:58:10.012Z,6.71
2024-01-18T11:08:14.550Z,6.69
2024-01-18T11:18:17.686Z,6.70
2024-01-18T11:28:24.640Z,6.75
2024-01-18T11:38:35.170Z,6.61
2024-01-18T11:48:38.529Z,6.46
2024-01-18T11:58:41.828Z,6.64
2024-01-18T12:08:46.072Z,6.65
2024-01-18T12:18:51.628Z,6.49
2024-01-18T12:28:58.749Z,6.39
2024-01-18T12:39:04.155Z,6.42
2024-01-18T12:49:08.339Z,6.55
2024-01-18T12:59:14.030Z,6.36
2024-01-18T13:09:20.807Z,6.39
2024-01-18T13:19:25.605Z,6.29
2024-01-18T13:29:29.011Z,6.24
2024-01-18T13:39:32.603Z,5.98
2024-01-18T13:49:36.873Z,5.79
2024-01-18T13:59:40.170Z,5.63
2024-01-18T14:09:44.146Z,5.57
2024-01-18T14:19:47.380Z,5.49
2024-01-18T14:29:50.528Z,5.31
2024-01-18T14:39:53.737Z,5.08
2024-01-18T14:49:58.109Z,4.92
2024-01-18T15:00:01.892Z,4.78
2024-01-18T15:10:06.983Z,4.72
2024-01-18T15:20:11.425Z,4.57
2024-01-18T15:30:15.610Z,4.55
2024-01-18T15:40:18.946Z,4.56
2024-01-18T15:50:22.522Z,4.38
2024-01-18T16:00:26.100Z,4.37
2024-01-18T16:10:29.582Z,4.30
2024-01-18T16:20:32.699Z,4.15
2024-01-18T16:30:36.950Z,4.09
2024-01-18T16:40:41.156Z,4.14
2024-01-18T16:50:44.461Z,4.19
2024-01-18T17:00:47.492Z,3.96
2024-01-18T17:10:51.097Z,3.66
2024-01-18T17:20:54.493Z,3.65
2024-01-18T17:30:57.556Z,3.72
2024-01-18T17:41:03.314Z,3.70
2024-01-18T17:51:06.838Z,3.71
2024-01-18T18:01:10.375Z,3.77
2024-01-18T18:11:16.795Z,3.76
2024-01-18T18:21:24.731Z,3.49
2024-01-18T18:31:27.877Z,3.23
2024-01-18T18:41:31.371Z,2.92
2024-01-18T18:51:34.529Z,2.71
2024-01-18T19:01:37.665Z,2.63
2024-01-18T19:11:43.181Z,2.42
2024-01-18T19:21:46.531Z,2.16
2024-01-18T19:31:50.444Z,2.03
2024-01-18T19:41:53.617Z,1.99
2024-01-18T19:51:59.006Z,2.01
2024-01-18T20:02:05.707Z,2.14
2024-01-18T20:12:09.082Z,2.03
2024-01-18T20:22:12.422Z,1.90
2024-01-18T20:32:15.868Z,1.87
2024-01-18T20:42:19.235Z,1.71
2024-01-18T20:52:22.472Z,1.59
2024-01-18T21:02:25.696Z,1.60
2024-01-18T21:12:28.804Z,1.32
2024-01-18T21:22:31.871Z,1.17
2024-01-18T21:32:35.296Z,1.18
2024-01-18T21:42:38.563Z,1.21
2024-01-18T21:52:42.169Z,1.04
2024-01-18T22:02:46.518Z,0.87
2024-01-18T22:12:49.800Z,0.66
2024-01-18T22:22:52.850Z,0.77
2024-01-18T22:32:56.004Z,0.81
2024-01-18T22:42:59.311Z,0.79
2024-01-18T22:53:06.075Z,0.80
2024-01-18T23:03:09.152Z,0.72
2024-01-18T23:13:12.262Z,0.62
2024-01-18T23:23:15.367Z,0.51
2024-01-18T23:33:18.669Z,0.39
2024-01-18T23:43:22.107Z,0.28
2024-01-18T23:53:25.205Z,0.17
